createdAt,value
2017-04-05T00:00:19.231Z,53.99
2017-04-05T00:00:40.939Z,54.23
2017-04-05T00:01:43.525Z,54.73
2017-04-05T00:02:14.779Z,54.63
2017-04-05T00:02:36.489Z,54.76
2017-04-05T00:02:58.279Z,54.75
2017-04-05T00:03:24.750Z,54.63
2017-04-05T00:03:46.445Z,54.67
2017-04-05T00:04:08.226Z,54.52
2017-04-05T00:04:39.475Z,54.41
2017-04-05T00:05:01.158Z,54.47
2017-04-05T00:05:22.947Z,54.51
2017-04-05T00:05:49.417Z,54.52
2017-04-05T00:06:11.111Z,54.50
2017-04-05T00:06:32.818Z,54.37
2017-04-05T00:06:54.597Z,54.17
2017-04-05T00:07:16.294Z,54.04
2017-04-05T00:07:47.538Z,53.98
2017-04-05T00:08:09.309Z,54.13
2017-04-05T00:08:40.559Z,53.85
2017-04-05T00:09:02.251Z,54.20
2017-04-05T00:09:24.032Z,54.28
2017-04-05T00:09:50.526Z,54.43
2017-04-05T00:10:12.225Z,54.50
2017-04-05T00:10:43.511Z,54.46
2017-04-05T00:11:05.304Z,54.49
2017-04-05T00:12:07.896Z,54.64
2017-04-05T00:12:29.593Z,54.59
2017-04-05T00:12:56.077Z,54.86
2017-04-05T00:13:17.775Z,55.20
2017-04-05T00:13:39.553Z,55.00
2017-04-05T00:14:51.612Z,54.88
2017-04-05T00:15:13.416Z,54.96
2017-04-05T00:15:35.133Z,55.18
2017-04-05T00:15:56.860Z,55.42
2017-04-05T00:16:18.658Z,55.40
2017-04-05T00:16:40.342Z,55.47
2017-04-05T00:17:02.030Z,55.53
2017-04-05T00:17:23.727Z,55.31
2017-04-05T00:17:45.508Z,55.12
2017-04-05T00:18:07.194Z,54.93
2017-04-05T00:18:28.891Z,54.61
2017-04-05T00:18:50.628Z,54.41
2017-04-05T00:19:12.390Z,54.51
2017-04-05T00:19:43.643Z,54.65
2017-04-05T00:20:05.333Z,54.61
2017-04-05T00:20:27.125Z,55.15
2017-04-05T00:20:53.607Z,55.36
2017-04-05T00:21:15.335Z,55.13
2017-04-05T00:21:37.024Z,54.95
2017-04-05T00:21:58.828Z,54.90
2017-04-05T00:22:20.560Z,55.01
2017-04-05T00:22:42.272Z,54.94
2017-04-05T00:23:08.829Z,55.10
2017-04-05T00:23:30.524Z,55.10
2017-04-05T00:23:52.221Z,55.13
2017-04-05T00:24:18.700Z,54.99
2017-04-05T00:24:40.487Z,55.22
2017-04-05T00:25:11.754Z,55.42
2017-04-05T00:25:33.447Z,55.29
2017-04-05T00:25:55.243Z,55.17
2017-04-05T00:26:21.708Z,55.26
2017-04-05T00:26:43.527Z,55.27
2017-04-05T00:27:46.138Z,55.51
2017-04-05T00:28:07.912Z,55.77
2017-04-05T00:29:10.440Z,55.85
2017-04-05T00:29:37.003Z,55.80
2017-04-05T00:30:03.486Z,55.91
2017-04-05T00:30:25.193Z,55.83
2017-04-05T00:30:51.789Z,55.81
2017-04-05T00:31:13.535Z,55.55
2017-04-05T00:31:35.232Z,55.57
2017-04-05T00:32:33.590Z,55.78
2017-04-05T00:33:04.849Z,55.41
2017-04-05T00:33:26.649Z,55.54
2017-04-05T00:33:57.895Z,55.57
2017-04-05T00:34:19.595Z,55.55
2017-04-05T00:34:41.391Z,55.76
2017-04-05T00:35:07.875Z,55.79
2017-04-05T00:35:29.579Z,55.64
2017-04-05T00:36:32.197Z,55.13
2017-04-05T00:36:53.900Z,55.20
2017-04-05T00:37:15.608Z,55.22
2017-04-05T00:37:42.320Z,55.19
2017-04-05T00:38:04.016Z,55.28
2017-04-05T00:38:25.728Z,55.25
2017-04-05T00:38:52.283Z,55.29
2017-04-05T00:39:13.980Z,54.98
2017-04-05T00:39:40.574Z,55.18
2017-04-05T00:40:02.362Z,55.28
2017-04-05T00:41:00.904Z,55.40
2017-04-05T00:41:22.604Z,55.24
2017-04-05T00:41:53.888Z,55.34
2017-04-05T00:42:15.721Z,55.53
2017-04-05T00:42:37.418Z,55.53
2017-04-05T00:42:59.126Z,55.39
2017-04-05T00:43:20.845Z,55.55
2017-04-05T00:44:19.420Z,55.52
2017-04-05T00:44:45.992Z,55.55
2017-04-05T00:45:17.247Z,55.19
2017-04-05T00:45:39.108Z,55.28
2017-04-05T00:46:38.473Z,55.40
2017-04-05T00:47:09.724Z,55.43
2017-04-05T00:47:31.517Z,55.29
2017-04-05T00:47:53.228Z,55.15
2017-04-05T00:48:19.710Z,55.13
2017-04-05T00:48:41.505Z,54.91
2017-04-05T00:49:12.763Z,54.90
2017-04-05T00:49:34.466Z,54.93
2017-04-05T00:50:32.845Z,54.78
2017-04-05T00:50:54.537Z,54.89
2017-04-05T00:51:54.066Z,55.07
2017-04-05T00:52:25.337Z,55.15
2017-04-05T00:52:47.165Z,55.33
2017-04-05T00:53:08.866Z,55.05
2017-04-05T00:53:30.572Z,55.20
2017-04-05T00:53:52.264Z,55.73
2017-04-05T00:54:18.809Z,55.66
2017-04-05T00:54:40.530Z,55.37
2017-04-05T00:55:11.778Z,55.59
2017-04-05T00:55:33.591Z,55.50
2017-04-05T00:56:31.914Z,55.11
2017-04-05T00:57:03.153Z,55.37
2017-04-05T00:57:24.978Z,55.46
2017-04-05T00:57:46.694Z,55.47
2017-04-05T00:58:13.247Z,55.61
2017-04-05T00:58:34.979Z,55.55
2017-04-05T00:59:33.328Z,55.40
2017-04-05T00:59:55.127Z,55.46
2017-04-05T01:00:21.689Z,54.99
2017-04-05T01:00:43.482Z,55.12
2017-04-05T01:01:14.732Z,54.59
2017-04-05T01:01:36.617Z,54.28
2017-04-05T01:02:07.878Z,54.38
2017-04-05T01:02:29.810Z,54.40
2017-04-05T01:03:01.086Z,54.47
2017-04-05T01:03:22.854Z,54.81
2017-04-05T01:03:44.589Z,54.97
2017-04-05T01:04:11.154Z,55.29
2017-04-05T01:04:32.951Z,55.37
2017-04-05T01:05:04.202Z,55.55
2017-04-05T01:05:26.038Z,55.24
2017-04-05T01:05:52.518Z,54.88
2017-04-05T01:06:14.223Z,54.95
2017-04-05T01:06:40.790Z,54.97
2017-04-05T01:07:02.602Z,55.08
2017-04-05T01:07:24.322Z,55.27
2017-04-05T01:07:46.021Z,55.75
2017-04-05T01:08:07.858Z,56.17
2017-04-05T01:08:29.569Z,56.08
2017-04-05T01:08:51.274Z,55.82
2017-04-05T01:09:12.961Z,55.81
2017-04-05T01:09:44.204Z,55.81
2017-04-05T01:10:05.987Z,55.69
2017-04-05T01:10:37.238Z,55.56
2017-04-05T01:10:59.029Z,55.40
2017-04-05T01:11:57.296Z,54.78
2017-04-05T01:12:23.887Z,54.67
2017-04-05T01:12:45.595Z,54.65
2017-04-05T01:13:07.337Z,54.69
2017-04-05T01:13:33.931Z,54.72
2017-04-05T01:13:55.636Z,54.65
2017-04-05T01:14:17.410Z,54.76
2017-04-05T01:14:43.948Z,55.02
2017-04-05T01:15:05.632Z,55.29
2017-04-05T01:15:32.178Z,55.73
2017-04-05T01:15:53.900Z,55.90
2017-04-05T01:16:15.604Z,55.92
2017-04-05T01:16:37.312Z,55.70
2017-04-05T01:16:59.124Z,55.71
2017-04-05T01:17:20.838Z,55.54
2017-04-05T01:17:47.312Z,55.25
2017-04-05T01:18:09.119Z,54.91
2017-04-05T01:18:40.377Z,54.76
2017-04-05T01:19:02.072Z,54.98
2017-04-05T01:19:33.331Z,55.10
2017-04-05T01:19:55.108Z,55.21
2017-04-05T01:20:26.364Z,54.96
2017-04-05T01:20:48.137Z,55.33
2017-04-05T01:21:09.847Z,55.74
2017-04-05T01:21:36.317Z,55.90
2017-04-05T01:21:58.106Z,55.86
2017-04-05T01:22:19.810Z,55.93
2017-04-05T01:22:46.277Z,55.58
2017-04-05T01:23:07.978Z,55.54
2017-04-05T01:23:29.770Z,55.48
2017-04-05T01:23:51.479Z,55.33
2017-04-05T01:24:13.178Z,55.24
2017-04-05T01:24:34.877Z,55.15
2017-04-05T01:25:37.470Z,54.82
2017-04-05T01:25:59.203Z,54.81
2017-04-05T01:26:20.906Z,54.78
2017-04-05T01:26:52.166Z,54.54
2017-04-05T01:27:13.986Z,54.33
2017-04-05T01:27:45.242Z,54.12
2017-04-05T01:28:07.018Z,54.16
2017-04-05T01:28:28.741Z,54.24
2017-04-05T01:28:59.987Z,54.55
2017-04-05T01:29:21.728Z,54.38
2017-04-05T01:29:43.435Z,54.03
2017-04-05T01:30:14.717Z,54.14
2017-04-05T01:30:36.497Z,54.53
2017-04-05T01:30:58.219Z,54.52
2017-04-05T01:31:19.918Z,54.38
2017-04-05T01:31:41.621Z,54.32
2017-04-05T01:32:03.412Z,54.43
2017-04-05T01:32:29.891Z,54.81
2017-04-05T01:32:51.586Z,55.07
2017-04-05T01:33:13.404Z,55.33
2017-04-05T01:33:35.097Z,55.17
2017-04-05T01:33:56.804Z,55.39
2017-04-05T01:34:18.511Z,55.55
2017-04-05T01:34:45.091Z,55.55
2017-04-05T01:35:06.801Z,55.48
2017-04-05T01:35:28.499Z,55.12
2017-04-05T01:35:50.222Z,55.04
2017-04-05T01:36:11.990Z,54.84
2017-04-05T01:36:38.559Z,54.52
2017-04-05T01:37:00.243Z,54.96
2017-04-05T01:37:26.800Z,55.71
2017-04-05T01:37:48.498Z,56.75
2017-04-05T01:38:10.210Z,57.63
2017-04-05T01:38:36.756Z,58.05
2017-04-05T01:38:58.482Z,58.09
2017-04-05T01:39:24.949Z,57.64
2017-04-05T01:39:46.663Z,57.25
2017-04-05T01:40:13.229Z,57.13
2017-04-05T01:40:34.919Z,57.24
2017-04-05T01:41:37.508Z,57.13
2017-04-05T01:41:59.201Z,56.92
2017-04-05T01:42:57.533Z,55.94
2017-04-05T01:43:19.246Z,55.75
2017-04-05T01:43:45.734Z,55.48
2017-04-05T01:44:07.429Z,55.44
2017-04-05T01:44:29.227Z,55.70
2017-04-05T01:44:55.700Z,55.52
2017-04-05T01:45:17.388Z,55.52
2017-04-05T01:45:39.182Z,55.53
2017-04-05T01:46:05.659Z,55.42
2017-04-05T01:46:27.383Z,55.19
2017-04-05T01:47:25.856Z,54.82
2017-04-05T01:47:47.591Z,54.86
2017-04-05T01:48:09.312Z,55.00
2017-04-05T01:48:31.095Z,55.33
2017-04-05T01:48:52.814Z,55.69
2017-04-05T01:49:24.069Z,55.58
2017-04-05T01:49:45.847Z,55.73
2017-04-05T01:50:44.076Z,56.02
2017-04-05T01:51:05.863Z,56.12
2017-04-05T01:51:27.562Z,56.07
2017-04-05T01:51:49.273Z,56.21
2017-04-05T01:52:10.961Z,56.31
2017-04-05T01:52:37.537Z,56.08
2017-04-05T01:52:59.239Z,55.95
2017-04-05T01:53:20.964Z,55.83
2017-04-05T01:53:47.525Z,55.73
2017-04-05T01:54:09.378Z,55.68
2017-04-05T01:54:37.924Z,55.66
2017-04-05T01:54:59.722Z,55.64
2017-04-05T01:56:02.307Z,55.77
2017-04-05T01:56:24.006Z,55.76
2017-04-05T01:56:50.491Z,55.63
2017-04-05T01:57:12.301Z,55.72
2017-04-05T01:57:34.021Z,56.09
2017-04-05T01:58:32.364Z,56.29
2017-04-05T01:58:54.099Z,56.05
2017-04-05T01:59:55.251Z,55.78
2017-04-05T02:00:16.801Z,55.85
2017-04-05T02:01:15.073Z,56.86
2017-04-05T02:01:36.901Z,56.84
2017-04-05T02:02:03.390Z,56.69
2017-04-05T02:02:25.099Z,56.55
2017-04-05T02:02:46.889Z,56.77
2017-04-05T02:03:08.605Z,56.88
2017-04-05T02:03:32.725Z,57.07
2017-04-05T02:03:54.544Z,56.80
2017-04-05T02:04:16.291Z,56.63
2017-04-05T02:04:47.641Z,56.50
2017-04-05T02:05:09.353Z,56.70
2017-04-05T02:05:31.291Z,56.55
2017-04-05T02:05:53.071Z,56.45
2017-04-05T02:06:14.800Z,56.52
2017-04-05T02:07:39.699Z,56.08
2017-04-05T02:08:38.275Z,55.90
2017-04-05T02:09:04.896Z,55.74
2017-04-05T02:10:07.430Z,55.55
2017-04-05T02:10:33.922Z,55.30
2017-04-05T02:10:58.673Z,55.46
2017-04-05T02:11:29.812Z,55.85
2017-04-05T02:11:51.534Z,55.75
2017-04-05T02:12:49.904Z,55.95
2017-04-05T02:13:11.768Z,55.86
2017-04-05T02:13:43.024Z,55.85
2017-04-05T02:14:04.723Z,55.77
2017-04-05T02:15:43.732Z,56.71
2017-04-05T02:16:08.290Z,56.44
2017-04-05T02:16:30.194Z,56.20
2017-04-05T02:16:54.307Z,56.36
2017-04-05T02:17:20.811Z,56.54
2017-04-05T02:17:42.527Z,56.60
2017-04-05T02:18:50.847Z,56.06
2017-04-05T02:19:24.222Z,56.13
2017-04-05T02:19:45.987Z,56.18
2017-04-05T02:20:07.809Z,56.07
2017-04-05T02:21:06.071Z,56.51
2017-04-05T02:21:27.789Z,56.38
2017-04-05T02:21:59.038Z,56.63
2017-04-05T02:22:23.520Z,56.97
2017-04-05T02:22:50.071Z,56.93
2017-04-05T02:23:11.753Z,57.04
2017-04-05T02:23:43.008Z,56.95
2017-04-05T02:24:38.209Z,56.28
2017-04-05T02:24:59.979Z,56.25
2017-04-05T02:25:31.236Z,56.51
2017-04-05T02:25:53.050Z,56.49
2017-04-05T02:26:14.751Z,56.64
2017-04-05T02:26:39.070Z,57.10
2017-04-05T02:27:05.552Z,56.86
2017-04-05T02:27:27.375Z,56.71
2017-04-05T02:27:49.096Z,56.96
2017-04-05T02:28:15.572Z,56.88
2017-04-05T02:28:37.367Z,56.69
2017-04-05T02:29:08.662Z,56.50
2017-04-05T02:29:30.471Z,56.49
2017-04-05T02:30:01.763Z,56.62
2017-04-05T02:30:23.469Z,56.71
2017-04-05T02:30:54.813Z,56.34
2017-04-05T02:31:16.660Z,56.30
2017-04-05T02:32:04.752Z,56.58
2017-04-05T02:32:36.013Z,56.32
2017-04-05T02:32:57.708Z,56.62
2017-04-05T02:33:19.588Z,56.74
2017-04-05T02:33:46.066Z,56.83
2017-04-05T02:34:07.761Z,56.90
2017-04-05T02:34:29.471Z,56.97
2017-04-05T02:35:00.741Z,57.01
2017-04-05T02:35:22.512Z,57.00
2017-04-05T02:35:46.637Z,57.33
2017-04-05T02:36:08.464Z,57.70
2017-04-05T02:37:06.830Z,57.92
2017-04-05T02:37:38.109Z,58.06
2017-04-05T02:37:59.881Z,57.98
2017-04-05T02:38:58.184Z,57.56
2017-04-05T02:39:29.551Z,57.76
2017-04-05T02:39:51.247Z,57.67
2017-04-05T02:40:49.750Z,57.27
2017-04-05T02:41:52.301Z,56.92
2017-04-05T02:42:14.196Z,57.18
2017-04-05T02:42:45.452Z,57.12
2017-04-05T02:43:07.276Z,56.92
2017-04-05T02:43:33.772Z,56.44
2017-04-05T02:43:55.462Z,56.52
2017-04-05T02:44:21.932Z,56.80
2017-04-05T02:44:43.740Z,56.88
2017-04-05T02:45:05.443Z,57.19
2017-04-05T02:46:03.755Z,57.84
2017-04-05T02:47:06.275Z,57.36
2017-04-05T02:47:28.072Z,57.18
2017-04-05T02:47:59.341Z,57.06
2017-04-05T02:48:21.133Z,56.88
2017-04-05T02:48:47.626Z,56.52
2017-04-05T02:49:09.348Z,56.39
2017-04-05T02:49:31.156Z,56.46
2017-04-05T02:49:52.861Z,56.22
2017-04-05T02:50:14.573Z,56.41
2017-04-05T02:50:36.299Z,56.68
2017-04-05T02:51:43.572Z,56.80
2017-04-05T02:52:05.290Z,56.75
2017-04-05T02:53:07.919Z,56.62
2017-04-05T02:53:39.182Z,56.79
2017-04-05T02:54:00.917Z,57.06
2017-04-05T02:54:59.202Z,57.41
2017-04-05T02:55:21.021Z,57.79
2017-04-05T02:55:47.497Z,57.79
2017-04-05T02:56:09.325Z,57.96
2017-04-05T02:56:43.473Z,57.39
2017-04-05T02:57:05.092Z,57.47
2017-04-05T02:57:26.795Z,57.68
2017-04-05T02:57:48.502Z,57.49
2017-04-05T02:58:55.919Z,57.51
2017-04-05T02:59:17.640Z,57.54
2017-04-05T02:59:39.418Z,57.30
2017-04-05T03:00:10.692Z,57.19
2017-04-05T03:00:32.392Z,57.08
2017-04-05T03:00:58.869Z,57.15
2017-04-05T03:01:20.621Z,57.19
2017-04-05T03:01:47.120Z,57.45
2017-04-05T03:02:08.947Z,57.46
2017-04-05T03:02:40.203Z,57.68
2017-04-05T03:03:01.926Z,57.46
2017-04-05T03:03:23.735Z,57.26
2017-04-05T03:03:45.501Z,57.13
2017-04-05T03:04:38.548Z,56.98
2017-04-05T03:05:02.860Z,57.31
2017-04-05T03:05:29.478Z,57.25
2017-04-05T03:05:51.296Z,57.52
2017-04-05T03:06:17.775Z,57.33
2017-04-05T03:06:39.683Z,57.59
2017-04-05T03:07:10.938Z,57.40
2017-04-05T03:07:32.674Z,57.31
2017-04-05T03:08:03.921Z,56.96
2017-04-05T03:08:52.125Z,57.21
2017-04-05T03:09:13.834Z,56.98
2017-04-05T03:10:17.169Z,56.92
2017-04-05T03:10:43.793Z,56.58
2017-04-05T03:11:05.509Z,56.54
2017-04-05T03:11:36.760Z,56.90
2017-04-05T03:11:58.464Z,56.96
2017-04-05T03:12:20.276Z,57.20
2017-04-05T03:12:46.765Z,57.26
2017-04-05T03:13:08.493Z,57.32
2017-04-05T03:13:35.095Z,57.09
2017-04-05T03:13:56.855Z,57.15
2017-04-05T03:14:18.589Z,57.52
2017-04-05T03:14:45.068Z,58.00
2017-04-05T03:15:06.767Z,58.14
2017-04-05T03:15:33.281Z,58.31
2017-04-05T03:15:54.988Z,57.68
2017-04-05T03:16:53.455Z,57.38
2017-04-05T03:17:15.176Z,57.38
2017-04-05T03:18:17.679Z,57.36
2017-04-05T03:18:48.959Z,57.69
2017-04-05T03:19:10.716Z,57.64
2017-04-05T03:19:42.022Z,57.60
2017-04-05T03:20:03.692Z,57.54
2017-04-05T03:20:35.070Z,57.40
2017-04-05T03:20:56.787Z,57.36
2017-04-05T03:21:23.307Z,57.34
2017-04-05T03:21:45.054Z,57.50
2017-04-05T03:22:11.537Z,57.39
2017-04-05T03:22:33.247Z,57.19
2017-04-05T03:22:54.950Z,56.96
2017-04-05T03:23:26.334Z,56.97
2017-04-05T03:23:48.041Z,57.12
2017-04-05T03:24:09.757Z,57.50
2017-04-05T03:24:36.234Z,57.85
2017-04-05T03:24:58.007Z,57.61
2017-04-05T03:25:24.499Z,57.71
2017-04-05T03:25:46.214Z,57.74
2017-04-05T03:26:07.925Z,58.02
2017-04-05T03:27:06.279Z,58.07
2017-04-05T03:27:27.996Z,57.90
2017-04-05T03:27:59.376Z,57.70
2017-04-05T03:28:21.025Z,58.08
2017-04-05T03:28:42.724Z,58.14
2017-04-05T03:29:14.100Z,58.24
2017-04-05T03:29:35.802Z,58.10
2017-04-05T03:29:57.545Z,57.99
2017-04-05T03:30:19.364Z,58.12
2017-04-05T03:30:41.147Z,58.19
2017-04-05T03:31:07.663Z,58.24
2017-04-05T03:31:29.411Z,58.55
2017-04-05T03:31:51.144Z,58.74
2017-04-05T03:32:12.880Z,59.15
2017-04-05T03:32:34.590Z,59.39
2017-04-05T03:33:34.031Z,58.45
2017-04-05T03:34:00.518Z,58.21
2017-04-05T03:34:22.357Z,58.05
2017-04-05T03:34:44.071Z,57.92
2017-04-05T03:35:10.568Z,57.72
2017-04-05T03:35:32.282Z,57.64
2017-04-05T03:36:30.559Z,57.93
2017-04-05T03:36:57.066Z,58.11
2017-04-05T03:37:23.600Z,58.46
2017-04-05T03:37:45.297Z,58.40
2017-04-05T03:38:11.789Z,58.46
2017-04-05T03:38:33.520Z,58.62
2017-04-05T03:39:00.080Z,58.75
2017-04-05T03:39:21.787Z,58.99
2017-04-05T03:39:48.276Z,60.14
2017-04-05T03:40:09.986Z,59.98
2017-04-05T03:40:36.536Z,59.55
2017-04-05T03:40:58.253Z,59.46
2017-04-05T03:41:24.757Z,59.54
2017-04-05T03:41:46.487Z,60.10
2017-04-05T03:42:08.268Z,60.37
2017-04-05T03:43:10.765Z,60.21
2017-04-05T03:44:09.018Z,60.31
2017-04-05T03:44:35.540Z,60.80
2017-04-05T03:45:06.929Z,60.86
2017-04-05T03:45:28.589Z,60.97
2017-04-05T03:46:31.099Z,61.26
2017-04-05T03:46:57.593Z,61.72
2017-04-05T03:47:28.886Z,62.14
2017-04-05T03:47:50.583Z,62.09
2017-04-05T03:48:17.070Z,62.58
2017-04-05T03:48:38.783Z,62.48
2017-04-05T03:49:37.101Z,61.99
2017-04-05T03:50:03.586Z,61.81
2017-04-05T03:51:01.847Z,62.11
2017-04-05T03:51:23.578Z,62.46
2017-04-05T03:51:45.356Z,62.51
2017-04-05T03:52:11.827Z,62.70
2017-04-05T03:52:33.563Z,62.84
2017-04-05T03:53:00.194Z,62.85
2017-04-05T03:53:21.900Z,62.90
2017-04-05T03:53:53.154Z,62.30
2017-04-05T03:54:14.914Z,62.42
2017-04-05T03:54:36.614Z,62.48
2017-04-05T03:54:58.326Z,61.81
2017-04-05T03:55:20.042Z,61.32
2017-04-05T03:56:19.298Z,60.91
2017-04-05T03:56:41.012Z,61.61
2017-04-05T03:57:07.538Z,62.29
2017-04-05T03:57:29.253Z,62.32
2017-04-05T03:57:50.994Z,62.74
2017-04-05T03:58:17.520Z,62.21
2017-04-05T03:58:39.240Z,62.47
2017-04-05T03:59:00.933Z,62.27
2017-04-05T03:59:27.400Z,62.34
2017-04-05T03:59:49.177Z,62.86
2017-04-05T04:00:10.862Z,63.05
2017-04-05T04:00:37.361Z,62.84
2017-04-05T04:00:59.084Z,62.41
2017-04-05T04:01:20.870Z,61.86
2017-04-05T04:01:42.576Z,61.23
2017-04-05T04:02:04.279Z,60.86
2017-04-05T04:02:26.009Z,60.51
2017-04-05T04:02:57.288Z,60.37
2017-04-05T04:03:18.969Z,59.88
2017-04-05T04:04:26.249Z,60.66
2017-04-05T04:04:47.955Z,60.64
2017-04-05T04:05:46.386Z,59.91
2017-04-05T04:06:08.115Z,59.82
2017-04-05T04:06:39.491Z,59.36
2017-04-05T04:07:01.125Z,59.35
2017-04-05T04:07:22.816Z,59.46
2017-04-05T04:07:54.109Z,59.43
2017-04-05T04:08:15.895Z,59.17
2017-04-05T04:08:42.378Z,59.19
2017-04-05T04:09:04.090Z,59.19
2017-04-05T04:09:25.907Z,58.98
2017-04-05T04:09:57.163Z,58.99
2017-04-05T04:10:18.944Z,59.01
2017-04-05T04:10:45.465Z,59.01
2017-04-05T04:11:07.181Z,59.17
2017-04-05T04:12:05.545Z,59.34
2017-04-05T04:12:32.057Z,59.66
2017-04-05T04:13:30.383Z,59.77
2017-04-05T04:13:56.910Z,59.68
2017-04-05T04:14:18.669Z,60.17
2017-04-05T04:14:40.465Z,60.89
2017-04-05T04:15:43.019Z,61.46
2017-04-05T04:16:04.845Z,61.79
2017-04-05T04:17:07.360Z,62.25
2017-04-05T04:17:29.200Z,61.76
2017-04-05T04:18:00.489Z,61.06
2017-04-05T04:18:22.162Z,60.73
2017-04-05T04:18:53.557Z,60.50
2017-04-05T04:19:15.209Z,60.16
2017-04-05T04:19:44.159Z,59.83
2017-04-05T04:20:15.493Z,60.02
2017-04-05T04:20:37.210Z,59.96
2017-04-05T04:21:03.719Z,60.01
2017-04-05T04:21:25.447Z,60.50
2017-04-05T04:22:32.830Z,61.91
2017-04-05T04:22:54.627Z,61.50
2017-04-05T04:23:21.185Z,61.03
2017-04-05T04:23:42.887Z,60.74
2017-04-05T04:24:09.404Z,60.59
2017-04-05T04:24:31.146Z,60.45
2017-04-05T04:24:57.726Z,60.19
2017-04-05T04:25:20.490Z,60.06
2017-04-05T04:25:46.979Z,59.87
2017-04-05T04:26:08.682Z,60.30
2017-04-05T04:26:35.317Z,61.27
2017-04-05T04:26:57.100Z,61.82
2017-04-05T04:27:18.880Z,61.81
2017-04-05T04:27:48.227Z,61.43
2017-04-05T04:28:09.945Z,61.04
2017-04-05T04:29:08.295Z,60.71
2017-04-05T04:29:39.565Z,60.82
2017-04-05T04:30:01.341Z,61.03
2017-04-05T04:30:27.965Z,61.20
2017-04-05T04:30:49.766Z,60.99
2017-04-05T04:31:16.403Z,61.01
2017-04-05T04:31:38.201Z,61.34
2017-04-05T04:32:04.810Z,61.31
2017-04-05T04:32:26.562Z,61.25
2017-04-05T04:32:48.415Z,61.67
2017-04-05T04:33:47.719Z,61.68
2017-04-05T04:34:19.031Z,61.41
2017-04-05T04:34:40.833Z,61.35
2017-04-05T04:35:12.122Z,61.16
2017-04-05T04:35:33.990Z,61.95
2017-04-05T04:36:05.324Z,62.82
2017-04-05T04:36:26.970Z,63.46
2017-04-05T04:36:59.413Z,63.67
2017-04-05T04:37:21.132Z,63.71
2017-04-05T04:37:52.585Z,63.28
2017-04-05T04:38:14.438Z,62.96
2017-04-05T04:39:12.878Z,62.38
2017-04-05T04:40:15.390Z,62.28
2017-04-05T04:40:37.091Z,62.04
2017-04-05T04:40:58.923Z,61.82
2017-04-05T04:41:30.247Z,61.62
2017-04-05T04:41:52.002Z,61.62
2017-04-05T04:42:13.897Z,61.43
2017-04-05T04:42:40.395Z,61.46
2017-04-05T04:43:02.166Z,61.28
2017-04-05T04:43:28.715Z,61.40
2017-04-05T04:44:21.834Z,61.82
2017-04-05T04:44:43.695Z,61.71
2017-04-05T04:45:05.477Z,61.75
2017-04-05T04:45:27.328Z,61.42
2017-04-05T04:45:49.098Z,61.36
2017-04-05T04:46:20.562Z,61.30
2017-04-05T04:46:42.227Z,61.49
2017-04-05T04:47:03.949Z,61.32
2017-04-05T04:47:30.496Z,61.13
2017-04-05T04:47:52.346Z,61.28
2017-04-05T04:48:59.791Z,61.16
2017-04-05T04:49:21.609Z,61.61
2017-04-05T04:49:48.178Z,61.21
2017-04-05T04:50:09.967Z,60.99
2017-04-05T04:50:36.441Z,60.89
2017-04-05T04:50:58.162Z,60.49
2017-04-05T04:51:19.874Z,60.31
2017-04-05T04:51:46.425Z,60.48
2017-04-05T04:52:08.150Z,60.27
2017-04-05T04:52:29.894Z,60.15
2017-04-05T04:53:01.262Z,60.45
2017-04-05T04:53:23.151Z,60.38
2017-04-05T04:53:44.899Z,60.35
2017-04-05T04:54:16.144Z,60.98
2017-04-05T04:54:37.958Z,60.79
2017-04-05T04:55:04.451Z,61.07
2017-04-05T04:55:26.152Z,60.99
2017-04-05T04:56:28.694Z,60.46
2017-04-05T04:56:59.934Z,60.96
2017-04-05T04:57:21.744Z,60.95
2017-04-05T04:57:48.243Z,60.64
2017-04-05T04:58:09.956Z,60.38
2017-04-05T04:58:36.514Z,60.47
2017-04-05T04:58:58.248Z,60.71
2017-04-05T04:59:19.964Z,60.50
2017-04-05T05:00:18.419Z,60.17
2017-04-05T05:00:44.899Z,59.93
2017-04-05T05:01:16.289Z,60.23
2017-04-05T05:01:37.950Z,60.78
2017-04-05T05:01:59.710Z,60.79
2017-04-05T05:02:26.202Z,61.08
2017-04-05T05:02:48.007Z,61.24
2017-04-05T05:03:14.509Z,61.33
2017-04-05T05:03:36.219Z,61.10
2017-04-05T05:04:07.605Z,60.58
2017-04-05T05:04:29.254Z,60.40
2017-04-05T05:05:00.530Z,60.48
2017-04-05T05:05:22.284Z,60.01
2017-04-05T05:06:21.541Z,59.96
2017-04-05T05:07:19.989Z,60.22
2017-04-05T05:07:46.486Z,60.38
2017-04-05T05:08:17.874Z,60.64
2017-04-05T05:08:39.516Z,60.61
2017-04-05T05:09:10.797Z,60.70
2017-04-05T05:09:32.562Z,60.71
2017-04-05T05:09:59.057Z,60.65
2017-04-05T05:10:20.763Z,60.80
2017-04-05T05:10:42.476Z,61.03
2017-04-05T05:11:04.280Z,60.77
2017-04-05T05:11:26.021Z,60.52
2017-04-05T05:11:52.546Z,60.46
2017-04-05T05:12:14.421Z,60.70
2017-04-05T05:12:40.980Z,60.58
2017-04-05T05:13:02.796Z,60.48
2017-04-05T05:13:24.572Z,60.41
2017-04-05T05:14:23.154Z,60.35
2017-04-05T05:14:44.921Z,60.10
2017-04-05T05:15:16.187Z,59.88
2017-04-05T05:15:38.007Z,59.92
2017-04-05T05:15:59.718Z,59.93
2017-04-05T05:16:58.129Z,60.12
2017-04-05T05:17:56.466Z,60.21
2017-04-05T05:18:18.196Z,59.83
2017-04-05T05:19:11.383Z,60.15
2017-04-05T05:19:33.132Z,60.31
2017-04-05T05:19:54.877Z,60.39
2017-04-05T05:20:53.247Z,60.53
2017-04-05T05:21:15.032Z,60.54
2017-04-05T05:21:46.303Z,60.65
2017-04-05T05:22:08.028Z,60.39
2017-04-05T05:22:29.850Z,60.09
2017-04-05T05:22:57.670Z,59.69
2017-04-05T05:23:19.431Z,59.65
2017-04-05T05:23:41.225Z,59.75
2017-04-05T05:24:03.071Z,59.69
2017-04-05T05:24:24.902Z,59.41
2017-04-05T05:24:46.670Z,59.55
2017-04-05T05:25:08.448Z,59.60
2017-04-05T05:25:30.215Z,59.78
2017-04-05T05:25:52.027Z,59.96
2017-04-05T05:26:13.802Z,60.21
2017-04-05T05:27:12.248Z,60.27
2017-04-05T05:27:34.060Z,60.32
2017-04-05T05:28:36.626Z,60.05
2017-04-05T05:29:43.986Z,61.12
2017-04-05T05:30:05.743Z,61.83
2017-04-05T05:31:44.834Z,62.76
2017-04-05T05:32:06.619Z,62.45
2017-04-05T05:32:33.108Z,62.33
2017-04-05T05:32:54.860Z,61.94
2017-04-05T05:33:21.445Z,61.53
2017-04-05T05:33:43.250Z,61.75
2017-04-05T05:34:09.839Z,61.30
2017-04-05T05:34:31.671Z,61.02
2017-04-05T05:35:02.944Z,61.13
2017-04-05T05:35:24.672Z,61.25
2017-04-05T05:35:46.464Z,61.33
2017-04-05T05:36:12.935Z,61.27
2017-04-05T05:36:34.647Z,61.38
2017-04-05T05:36:56.459Z,61.19
2017-04-05T05:37:22.930Z,61.14
2017-04-05T05:37:44.637Z,61.06
2017-04-05T05:38:06.348Z,61.89
2017-04-05T05:38:32.883Z,62.21
2017-04-05T05:38:54.610Z,62.79
2017-04-05T05:39:16.342Z,62.70
2017-04-05T05:39:38.076Z,62.82
2017-04-05T05:39:59.872Z,62.78
2017-04-05T05:40:26.344Z,62.88
2017-04-05T05:40:48.091Z,63.22
2017-04-05T05:41:09.898Z,62.80
2017-04-05T05:41:36.390Z,62.03
2017-04-05T05:41:58.099Z,61.81
2017-04-05T05:42:24.569Z,61.78
2017-04-05T05:42:46.275Z,61.82
2017-04-05T05:43:53.641Z,61.67
2017-04-05T05:44:15.353Z,61.45
2017-04-05T05:44:37.110Z,61.33
2017-04-05T05:45:03.608Z,61.27
2017-04-05T05:45:25.322Z,61.78
2017-04-05T05:45:47.015Z,62.24
2017-04-05T05:46:08.725Z,62.59
2017-04-05T05:46:30.435Z,62.74
2017-04-05T05:46:56.964Z,62.77
2017-04-05T05:47:18.703Z,62.50
2017-04-05T05:47:45.196Z,62.06
2017-04-05T05:48:06.891Z,61.97
2017-04-05T05:49:09.410Z,61.69
2017-04-05T05:50:07.791Z,62.33
2017-04-05T05:50:39.068Z,61.85
2017-04-05T05:51:00.823Z,61.69
2017-04-05T05:51:22.531Z,61.66
2017-04-05T05:51:49.005Z,62.10
2017-04-05T05:52:10.825Z,62.06
2017-04-05T05:52:37.316Z,61.82
2017-04-05T05:52:59.022Z,61.47
2017-04-05T05:53:25.629Z,61.40
2017-04-05T05:53:47.366Z,61.30
2017-04-05T05:54:09.065Z,61.38
2017-04-05T05:54:35.554Z,61.43
2017-04-05T05:54:57.277Z,61.31
2017-04-05T05:55:19.010Z,61.47
2017-04-05T05:55:40.734Z,61.84
2017-04-05T05:56:02.446Z,62.03
2017-04-05T05:56:28.937Z,61.79
2017-04-05T05:56:50.637Z,61.31
2017-04-05T05:57:17.115Z,60.81
2017-04-05T05:57:38.880Z,60.81
2017-04-05T05:58:05.360Z,60.62
2017-04-05T05:58:27.084Z,60.79
2017-04-05T05:58:58.475Z,60.92
2017-04-05T05:59:20.177Z,60.97
2017-04-05T05:59:46.667Z,60.93
2017-04-05T06:00:08.416Z,60.78
2017-04-05T06:00:34.916Z,60.61
2017-04-05T06:00:56.640Z,60.83
2017-04-05T06:01:18.340Z,60.70
2017-04-05T06:01:44.861Z,60.71
2017-04-05T06:02:06.565Z,60.92
2017-04-05T06:02:28.288Z,60.80
2017-04-05T06:02:49.992Z,60.86
2017-04-05T06:03:11.771Z,60.87